sensor_id;sensor_type;location;lat;lon;timestamp;P1;durP1;ratioP1;P2;durP2;ratioP2
31906;SDS011;18455;50.858;13.662;2024-03-23T00:52:43;14.63;;;11.00;;
31906;SDS011;18455;50.858;13.662;2024-03-23T00:57:45;20.00;;;11.90;;
31906;SDS011;18455;50.858;13.662;2024-03-23T01:02:45;19.63;;;11.23;;
31906;SDS011;18455;50.858;13.662;2024-03-23T01:07:45;18.90;;;11.37;;
31906;SDS011;18455;50.858;13.662;2024-03-23T01:12:46;17.30;;;10.77;;
31906;SDS011;18455;50.858;13.662;2024-03-23T01:17:46;13.97;;;9.77;;
31906;SDS011;18455;50.858;13.662;2024-03-23T01:22:46;16.73;;;10.30;;
31906;SDS011;18455;50.858;13.662;2024-03-23T01:27:46;16.23;;;10.70;;
31906;SDS011;18455;50.858;13.662;2024-03-23T01:32:47;13.27;;;9.73;;
31906;SDS011;18455;50.858;13.662;2024-03-23T01:37:47;18.40;;;10.50;;
31906;SDS011;18455;50.858;13.662;2024-03-23T01:42:56;17.17;;;10.63;;
31906;SDS011;18455;50.858;13.662;2024-03-23T01:47:57;14.83;;;10.77;;
31906;SDS011;18455;50.858;13.662;2024-03-23T01:52:57;16.07;;;10.43;;
31906;SDS011;18455;50.858;13.662;2024-03-23T01:57:58;15.43;;;11.10;;
31906;SDS011;18455;50.858;13.662;2024-03-23T02:02:58;16.70;;;9.77;;
31906;SDS011;18455;50.858;13.662;2024-03-23T02:07:58;17.17;;;10.80;;
31906;SDS011;18455;50.858;13.662;2024-03-23T02:12:58;14.63;;;10.07;;
31906;SDS011;18455;50.858;13.662;2024-03-23T02:17:58;14.10;;;10.07;;
31906;SDS011;18455;50.858;13.662;2024-03-23T02:22:58;21.40;;;11.57;;
31906;SDS011;18455;50.858;13.662;2024-03-23T02:27:59;16.87;;;11.67;;
31906;SDS011;18455;50.858;13.662;2024-03-23T02:32:59;17.70;;;11.03;;
31906;SDS011;18455;50.858;13.662;2024-03-23T02:38:00;17.03;;;11.43;;
31906;SDS011;18455;50.858;13.662;2024-03-23T02:43:00;19.93;;;11.47;;
31906;SDS011;18455;50.858;13.662;2024-03-23T02:48:00;19.63;;;10.57;;
31906;SDS011;18455;50.858;13.662;2024-03-23T02:53:00;20.53;;;11.80;;
31906;SDS011;18455;50.858;13.662;2024-03-23T02:58:00;23.90;;;13.07;;
31906;SDS011;18455;50.858;13.662;2024-03-23T03:03:01;18.10;;;11.03;;
31906;SDS011;18455;50.858;13.662;2024-03-23T03:08:03;22.73;;;11.90;;
31906;SDS011;18455;50.858;13.662;2024-03-23T03:13:03;18.03;;;12.23;;
31906;SDS011;18455;50.858;13.662;2024-03-23T03:18:03;17.73;;;11.38;;
31906;SDS011;18455;50.858;13.662;2024-03-23T03:23:04;18.23;;;11.20;;
31906;SDS011;18455;50.858;13.662;2024-03-23T03:28:04;18.27;;;11.17;;
31906;SDS011;18455;50.858;13.662;2024-03-23T03:33:05;18.23;;;10.70;;
31906;SDS011;18455;50.858;13.662;2024-03-23T03:38:05;15.27;;;10.30;;
31906;SDS011;18455;50.858;13.662;2024-03-23T03:43:05;18.53;;;10.33;;
31906;SDS011;18455;50.858;13.662;2024-03-23T03:48:06;20.13;;;11.77;;
31906;SDS011;18455;50.858;13.662;2024-03-23T03:53:06;19.27;;;11.90;;
31906;SDS011;18455;50.858;13.662;2024-03-23T03:58:06;18.43;;;10.57;;
31906;SDS011;18455;50.858;13.662;2024-03-23T04:03:06;15.40;;;10.50;;
31906;SDS011;18455;50.858;13.662;2024-03-23T04:08:07;16.63;;;10.60;;
31906;SDS011;18455;50.858;13.662;2024-03-23T04:13:07;19.03;;;11.23;;
31906;SDS011;18455;50.858;13.662;2024-03-23T04:18:07;20.00;;;11.10;;
31906;SDS011;18455;50.858;13.662;2024-03-23T04:23:08;19.07;;;10.33;;
31906;SDS011;18455;50.858;13.662;2024-03-23T04:28:08;14.63;;;9.47;;
31906;SDS011;18455;50.858;13.662;2024-03-23T04:33:08;15.13;;;9.07;;
31906;SDS011;18455;50.858;13.662;2024-03-23T04:38:08;16.87;;;9.27;;
31906;SDS011;18455;50.858;13.662;2024-03-23T04:43:08;15.50;;;10.17;;
31906;SDS011;18455;50.858;13.662;2024-03-23T04:48:09;17.03;;;10.80;;
31906;SDS011;18455;50.858;13.662;2024-03-23T04:53:09;18.30;;;10.60;;
31906;SDS011;18455;50.858;13.662;2024-03-23T04:58:09;22.43;;;12.03;;
31906;SDS011;18455;50.858;13.662;2024-03-23T05:03:09;19.17;;;10.70;;
31906;SDS011;18455;50.858;13.662;2024-03-23T05:08:09;14.83;;;11.20;;
31906;SDS011;18455;50.858;13.662;2024-03-23T05:13:10;19.17;;;11.23;;
31906;SDS011;18455;50.858;13.662;2024-03-23T05:18:10;20.00;;;12.50;;
31906;SDS011;18455;50.858;13.662;2024-03-23T05:23:10;18.67;;;11.00;;
31906;SDS011;18455;50.858;13.662;2024-03-23T05:28:10;21.07;;;12.33;;
31906;SDS011;18455;50.858;13.662;2024-03-23T05:33:10;19.87;;;11.80;;
31906;SDS011;18455;50.858;13.662;2024-03-23T05:38:11;20.23;;;11.60;;
31906;SDS011;18455;50.858;13.662;2024-03-23T05:43:11;20.47;;;12.37;;
31906;SDS011;18455;50.858;13.662;2024-03-23T05:48:11;23.40;;;11.57;;
31906;SDS011;18455;50.858;13.662;2024-03-23T05:53:11;18.57;;;12.23;;
31906;SDS011;18455;50.858;13.662;2024-03-23T05:58:14;20.93;;;11.53;;
31906;SDS011;18455;50.858;13.662;2024-03-23T06:03:14;16.97;;;10.97;;
31906;SDS011;18455;50.858;13.662;2024-03-23T06:08:14;22.17;;;11.93;;
31906;SDS011;18455;50.858;13.662;2024-03-23T06:13:15;14.67;;;10.90;;
31906;SDS011;18455;50.858;13.662;2024-03-23T06:18:15;13.43;;;9.20;;
31906;SDS011;18455;50.858;13.662;2024-03-23T06:23:15;15.63;;;9.60;;
31906;SDS011;18455;50.858;13.662;2024-03-23T06:28:17;15.97;;;10.30;;
31906;SDS011;18455;50.858;13.662;2024-03-23T06:33:18;17.00;;;10.27;;
31906;SDS011;18455;50.858;13.662;2024-03-23T06:38:18;12.93;;;10.13;;
31906;SDS011;18455;50.858;13.662;2024-03-23T06:43:18;19.07;;;11.10;;
31906;SDS011;18455;50.858;13.662;2024-03-23T06:48:18;18.97;;;11.63;;
31906;SDS011;18455;50.858;13.662;2024-03-23T06:53:19;17.73;;;10.87;;
31906;SDS011;18455;50.858;13.662;2024-03-23T06:58:20;16.10;;;10.50;;
31906;SDS011;18455;50.858;13.662;2024-03-23T07:03:20;19.33;;;12.30;;
31906;SDS011;18455;50.858;13.662;2024-03-23T07:08:21;20.33;;;12.43;;
31906;SDS011;18455;50.858;13.662;2024-03-23T07:13:22;20.70;;;12.47;;
31906;SDS011;18455;50.858;13.662;2024-03-23T07:18:22;15.83;;;10.60;;
31906;SDS011;18455;50.858;13.662;2024-03-23T07:23:23;15.40;;;10.10;;
31906;SDS011;18455;50.858;13.662;2024-03-23T07:28:23;16.87;;;10.93;;
31906;SDS011;18455;50.858;13.662;2024-03-23T07:33:24;16.27;;;9.63;;
31906;SDS011;18455;50.858;13.662;2024-03-23T07:38:24;9.97;;;6.73;;
31906;SDS011;18455;50.858;13.662;2024-03-23T07:43:24;13.10;;;6.30;;
31906;SDS011;18455;50.858;13.662;2024-03-23T07:48:24;7.20;;;5.07;;
31906;SDS011;18455;50.858;13.662;2024-03-23T07:53:24;7.53;;;4.63;;
31906;SDS011;18455;50.858;13.662;2024-03-23T07:58:25;6.20;;;3.83;;
31906;SDS011;18455;50.858;13.662;2024-03-23T08:03:26;5.00;;;3.55;;
31906;SDS011;18455;50.858;13.662;2024-03-23T08:08:26;8.00;;;4.60;;
31906;SDS011;18455;50.858;13.662;2024-03-23T08:13:26;4.63;;;3.50;;
31906;SDS011;18455;50.858;13.662;2024-03-23T08:18:27;4.78;;;3.08;;
31906;SDS011;18455;50.858;13.662;2024-03-23T08:23:27;5.10;;;3.28;;
31906;SDS011;18455;50.858;13.662;2024-03-23T08:28:27;4.55;;;3.42;;
31906;SDS011;18455;50.858;13.662;2024-03-23T08:33:28;4.95;;;3.22;;
31906;SDS011;18455;50.858;13.662;2024-03-23T08:38:28;3.80;;;3.15;;
31906;SDS011;18455;50.858;13.662;2024-03-23T08:43:29;8.68;;;4.72;;
31906;SDS011;18455;50.858;13.662;2024-03-23T08:48:32;6.50;;;5.10;;
31906;SDS011;18455;50.858;13.662;2024-03-23T08:53:34;7.82;;;5.28;;
31906;SDS011;18455;50.858;13.662;2024-03-23T08:58:35;9.10;;;6.13;;
31906;SDS011;18455;50.858;13.662;2024-03-23T09:03:35;10.25;;;6.63;;
31906;SDS011;18455;50.858;13.662;2024-03-23T09:08:36;8.25;;;6.57;;
31906;SDS011;18455;50.858;13.662;2024-03-23T09:13:37;7.22;;;5.80;;
31906;SDS011;18455;50.858;13.662;2024-03-23T09:18:38;7.43;;;6.60;;
31906;SDS011;18455;50.858;13.662;2024-03-23T09:23:38;8.57;;;6.60;;
31906;SDS011;18455;50.858;13.662;2024-03-23T09:28:38;12.90;;;8.63;;
31906;SDS011;18455;50.858;13.662;2024-03-23T09:33:39;14.87;;;10.33;;
31906;SDS011;18455;50.858;13.662;2024-03-23T09:38:39;13.73;;;9.47;;
31906;SDS011;18455;50.858;13.662;2024-03-23T09:43:40;13.13;;;9.43;;
31906;SDS011;18455;50.858;13.662;2024-03-23T09:48:41;12.93;;;9.70;;
31906;SDS011;18455;50.858;13.662;2024-03-23T09:53:42;13.53;;;8.40;;
31906;SDS011;18455;50.858;13.662;2024-03-23T09:58:42;12.23;;;9.10;;
31906;SDS011;18455;50.858;13.662;2024-03-23T10:03:43;11.30;;;7.77;;
31906;SDS011;18455;50.858;13.662;2024-03-23T10:08:43;13.43;;;7.10;;
31906;SDS011;18455;50.858;13.662;2024-03-23T10:13:43;10.87;;;5.63;;
31906;SDS011;18455;50.858;13.662;2024-03-23T10:18:43;3.57;;;2.43;;
31906;SDS011;18455;50.858;13.662;2024-03-23T10:23:44;3.10;;;1.90;;
31906;SDS011;18455;50.858;13.662;2024-03-23T10:28:57;1.53;;;1.43;;
31906;SDS011;18455;50.858;13.662;2024-03-23T10:34:02;26.47;;;14.27;;
31906;SDS011;18455;50.858;13.662;2024-03-23T10:39:02;6.07;;;4.13;;
31906;SDS011;18455;50.858;13.662;2024-03-23T10:44:02;1.33;;;1.23;;
31906;SDS011;18455;50.858;13.662;2024-03-23T10:49:04;2.40;;;1.80;;
31906;SDS011;18455;50.858;13.662;2024-03-23T10:54:05;3.97;;;3.00;;
31906;SDS011;18455;50.858;13.662;2024-03-23T10:59:07;11.83;;;7.50;;
31906;SDS011;18455;50.858;13.662;2024-03-23T11:04:08;1.67;;;1.20;;
31906;SDS011;18455;50.858;13.662;2024-03-23T11:09:37;1.57;;;1.37;;
31906;SDS011;18455;50.858;13.662;2024-03-23T11:14:28;1.77;;;1.53;;
31906;SDS011;18455;50.858;13.662;2024-03-23T11:19:35;1.20;;;1.20;;
31906;SDS011;18455;50.858;13.662;2024-03-23T11:24:39;1.30;;;1.20;;
31906;SDS011;18455;50.858;13.662;2024-03-23T11:29:39;2.20;;;2.00;;
31906;SDS011;18455;50.858;13.662;2024-03-23T11:34:41;1.07;;;1.07;;
31906;SDS011;18455;50.858;13.662;2024-03-23T11:39:41;1.00;;;1.00;;
31906;SDS011;18455;50.858;13.662;2024-03-23T11:44:41;4.30;;;3.90;;
31906;SDS011;18455;50.858;13.662;2024-03-23T11:49:42;1.50;;;1.40;;
31906;SDS011;18455;50.858;13.662;2024-03-23T11:54:42;1.27;;;1.27;;
31906;SDS011;18455;50.858;13.662;2024-03-23T11:59:42;1.50;;;1.40;;
31906;SDS011;18455;50.858;13.662;2024-03-23T12:04:42;1.97;;;1.87;;
31906;SDS011;18455;50.858;13.662;2024-03-23T12:09:43;1.60;;;1.50;;
31906;SDS011;18455;50.858;13.662;2024-03-23T12:14:44;2.30;;;2.20;;
31906;SDS011;18455;50.858;13.662;2024-03-23T12:19:44;2.37;;;2.17;;
31906;SDS011;18455;50.858;13.662;2024-03-23T12:24:45;2.33;;;2.13;;
31906;SDS011;18455;50.858;13.662;2024-03-23T12:29:46;4.30;;;3.87;;
31906;SDS011;18455;50.858;13.662;2024-03-23T12:34:46;4.20;;;3.80;;
31906;SDS011;18455;50.858;13.662;2024-03-23T12:39:47;3.10;;;2.80;;
31906;SDS011;18455;50.858;13.662;2024-03-23T12:44:47;2.20;;;2.00;;
31906;SDS011;18455;50.858;13.662;2024-03-23T12:49:48;2.70;;;2.50;;
31906;SDS011;18455;50.858;13.662;2024-03-23T12:54:49;1.90;;;1.80;;
31906;SDS011;18455;50.858;13.662;2024-03-23T12:59:50;3.00;;;2.70;;
31906;SDS011;18455;50.858;13.662;2024-03-23T13:04:54;2.03;;;1.60;;
31906;SDS011;18455;50.858;13.662;2024-03-23T13:09:55;1.53;;;1.40;;
31906;SDS011;18455;50.858;13.662;2024-03-23T13:14:56;1.50;;;1.40;;
31906;SDS011;18455;50.858;13.662;2024-03-23T13:19:56;1.60;;;1.30;;
31906;SDS011;18455;50.858;13.662;2024-03-23T13:24:56;2.93;;;1.93;;
31906;SDS011;18455;50.858;13.662;2024-03-23T13:29:57;3.17;;;1.90;;
31906;SDS011;18455;50.858;13.662;2024-03-23T13:34:57;7.37;;;2.00;;
31906;SDS011;18455;50.858;13.662;2024-03-23T13:39:57;4.27;;;2.30;;
31906;SDS011;18455;50.858;13.662;2024-03-23T13:44:58;4.00;;;2.20;;
31906;SDS011;18455;50.858;13.662;2024-03-23T13:49:58;2.90;;;1.90;;
31906;SDS011;18455;50.858;13.662;2024-03-23T13:54:58;4.00;;;1.83;;
31906;SDS011;18455;50.858;13.662;2024-03-23T13:59:58;3.47;;;1.70;;
31906;SDS011;18455;50.858;13.662;2024-03-23T14:04:58;6.33;;;1.93;;
31906;SDS011;18455;50.858;13.662;2024-03-23T14:10:04;14.27;;;7.80;;
31906;SDS011;18455;50.858;13.662;2024-03-23T14:15:06;8.03;;;2.30;;
31906;SDS011;18455;50.858;13.662;2024-03-23T14:20:06;6.07;;;2.10;;
31906;SDS011;18455;50.858;13.662;2024-03-23T14:25:11;4.20;;;1.87;;
31906;SDS011;18455;50.858;13.662;2024-03-23T14:30:11;7.50;;;3.17;;
31906;SDS011;18455;50.858;13.662;2024-03-23T14:35:14;5.47;;;2.27;;
31906;SDS011;18455;50.858;13.662;2024-03-23T14:40:15;3.97;;;2.30;;
31906;SDS011;18455;50.858;13.662;2024-03-23T14:45:15;5.73;;;2.70;;
31906;SDS011;18455;50.858;13.662;2024-03-23T14:50:15;5.53;;;2.60;;
31906;SDS011;18455;50.858;13.662;2024-03-23T14:55:16;4.77;;;2.57;;
31906;SDS011;18455;50.858;13.662;2024-03-23T15:00:17;6.33;;;2.50;;
31906;SDS011;18455;50.858;13.662;2024-03-23T15:05:18;4.53;;;2.90;;
31906;SDS011;18455;50.858;13.662;2024-03-23T15:10:18;5.87;;;2.87;;
31906;SDS011;18455;50.858;13.662;2024-03-23T15:15:18;6.70;;;2.80;;
31906;SDS011;18455;50.858;13.662;2024-03-23T15:20:20;4.63;;;2.80;;
31906;SDS011;18455;50.858;13.662;2024-03-23T15:25:20;4.53;;;2.80;;
31906;SDS011;18455;50.858;13.662;2024-03-23T15:30:23;10.10;;;2.97;;
31906;SDS011;18455;50.858;13.662;2024-03-23T15:35:24;7.47;;;2.53;;
31906;SDS011;18455;50.858;13.662;2024-03-23T15:40:24;6.97;;;2.80;;
31906;SDS011;18455;50.858;13.662;2024-03-23T15:45:24;6.87;;;2.63;;
31906;SDS011;18455;50.858;13.662;2024-03-23T15:50:25;7.70;;;3.30;;
31906;SDS011;18455;50.858;13.662;2024-03-23T15:55:25;6.83;;;3.10;;
31906;SDS011;18455;50.858;13.662;2024-03-23T16:00:25;6.77;;;3.57;;
31906;SDS011;18455;50.858;13.662;2024-03-23T16:05:25;8.97;;;3.63;;
31906;SDS011;18455;50.858;13.662;2024-03-23T16:10:25;11.23;;;4.00;;
31906;SDS011;18455;50.858;13.662;2024-03-23T16:15:26;6.97;;;3.83;;
31906;SDS011;18455;50.858;13.662;2024-03-23T16:20:26;11.13;;;3.93;;
31906;SDS011;18455;50.858;13.662;2024-03-23T16:25:26;10.73;;;3.77;;
31906;SDS011;18455;50.858;13.662;2024-03-23T16:30:26;14.70;;;4.20;;
31906;SDS011;18455;50.858;13.662;2024-03-23T16:35:28;11.60;;;3.63;;
31906;SDS011;18455;50.858;13.662;2024-03-23T16:40:29;6.67;;;4.13;;
31906;SDS011;18455;50.858;13.662;2024-03-23T16:45:29;6.90;;;3.73;;
31906;SDS011;18455;50.858;13.662;2024-03-23T16:50:29;8.07;;;3.40;;
31906;SDS011;18455;50.858;13.662;2024-03-23T16:55:29;6.40;;;3.80;;
31906;SDS011;18455;50.858;13.662;2024-03-23T17:00:30;8.67;;;3.90;;
31906;SDS011;18455;50.858;13.662;2024-03-23T17:05:36;6.20;;;4.10;;
31906;SDS011;18455;50.858;13.662;2024-03-23T17:10:36;7.17;;;3.67;;
31906;SDS011;18455;50.858;13.662;2024-03-23T17:15:43;7.93;;;5.07;;
31906;SDS011;18455;50.858;13.662;2024-03-23T17:20:43;8.37;;;4.57;;
31906;SDS011;18455;50.858;13.662;2024-03-23T17:25:44;7.60;;;4.63;;
31906;SDS011;18455;50.858;13.662;2024-03-23T17:30:44;13.70;;;4.77;;
31906;SDS011;18455;50.858;13.662;2024-03-23T17:35:44;7.83;;;4.73;;
31906;SDS011;18455;50.858;13.662;2024-03-23T17:40:45;8.93;;;5.47;;
31906;SDS011;18455;50.858;13.662;2024-03-23T17:45:45;10.57;;;4.83;;
31906;SDS011;18455;50.858;13.662;2024-03-23T17:50:45;11.33;;;6.00;;
31906;SDS011;18455;50.858;13.662;2024-03-23T17:55:49;14.43;;;5.80;;
31906;SDS011;18455;50.858;13.662;2024-03-23T18:00:49;13.20;;;6.80;;
31906;SDS011;18455;50.858;13.662;2024-03-23T18:05:49;8.93;;;5.20;;
31906;SDS011;18455;50.858;13.662;2024-03-23T18:10:49;8.97;;;5.47;;
31906;SDS011;18455;50.858;13.662;2024-03-23T18:15:56;7.70;;;5.13;;
31906;SDS011;18455;50.858;13.662;2024-03-23T18:20:56;7.60;;;4.73;;
31906;SDS011;18455;50.858;13.662;2024-03-23T18:25:56;19.33;;;9.33;;
31906;SDS011;18455;50.858;13.662;2024-03-23T18:30:57;10.40;;;5.67;;
31906;SDS011;18455;50.858;13.662;2024-03-23T18:35:58;11.93;;;4.73;;
31906;SDS011;18455;50.858;13.662;2024-03-23T18:40:58;6.23;;;3.73;;
31906;SDS011;18455;50.858;13.662;2024-03-23T18:45:58;7.33;;;3.57;;
31906;SDS011;18455;50.858;13.662;2024-03-23T18:51:02;9.60;;;4.50;;
31906;SDS011;18455;50.858;13.662;2024-03-23T18:56:03;8.20;;;4.70;;
31906;SDS011;18455;50.858;13.662;2024-03-23T19:01:04;6.50;;;4.13;;
31906;SDS011;18455;50.858;13.662;2024-03-23T19:06:04;6.33;;;4.10;;
31906;SDS011;18455;50.858;13.662;2024-03-23T19:11:04;8.70;;;4.90;;
31906;SDS011;18455;50.858;13.662;2024-03-23T19:16:05;8.50;;;4.33;;
31906;SDS011;18455;50.858;13.662;2024-03-23T19:21:05;7.13;;;4.13;;
31906;SDS011;18455;50.858;13.662;2024-03-23T19:26:06;6.23;;;4.00;;
31906;SDS011;18455;50.858;13.662;2024-03-23T19:31:06;8.03;;;3.90;;
31906;SDS011;18455;50.858;13.662;2024-03-23T19:36:07;8.73;;;3.67;;
31906;SDS011;18455;50.858;13.662;2024-03-23T19:41:08;6.97;;;2.80;;
31906;SDS011;18455;50.858;13.662;2024-03-23T19:46:08;5.63;;;3.40;;
31906;SDS011;18455;50.858;13.662;2024-03-23T19:51:09;4.50;;;3.13;;
31906;SDS011;18455;50.858;13.662;2024-03-23T19:56:09;4.27;;;2.80;;
31906;SDS011;18455;50.858;13.662;2024-03-23T20:01:13;5.53;;;3.27;;
31906;SDS011;18455;50.858;13.662;2024-03-23T20:06:14;6.93;;;3.17;;
31906;SDS011;18455;50.858;13.662;2024-03-23T20:11:15;4.53;;;2.97;;
31906;SDS011;18455;50.858;13.662;2024-03-23T20:16:15;6.23;;;3.50;;
31906;SDS011;18455;50.858;13.662;2024-03-23T20:21:15;5.20;;;2.90;;
31906;SDS011;18455;50.858;13.662;2024-03-23T20:26:16;8.60;;;3.50;;
31906;SDS011;18455;50.858;13.662;2024-03-23T20:31:17;6.20;;;3.30;;
31906;SDS011;18455;50.858;13.662;2024-03-23T20:36:17;6.80;;;2.87;;
31906;SDS011;18455;50.858;13.662;2024-03-23T20:41:18;6.00;;;3.10;;
31906;SDS011;18455;50.858;13.662;2024-03-23T20:46:20;8.60;;;2.97;;
31906;SDS011;18455;50.858;13.662;2024-03-23T20:51:20;4.73;;;3.10;;
31906;SDS011;18455;50.858;13.662;2024-03-23T20:56:21;4.53;;;3.17;;
31906;SDS011;18455;50.858;13.662;2024-03-23T21:01:21;4.03;;;3.33;;
31906;SDS011;18455;50.858;13.662;2024-03-23T21:06:22;8.97;;;3.43;;
31906;SDS011;18455;50.858;13.662;2024-03-23T21:11:23;4.73;;;3.30;;
31906;SDS011;18455;50.858;13.662;2024-03-23T21:16:24;10.20;;;4.73;;
31906;SDS011;18455;50.858;13.662;2024-03-23T21:21:24;5.67;;;4.00;;
31906;SDS011;18455;50.858;13.662;2024-03-23T21:26:27;6.70;;;3.80;;
31906;SDS011;18455;50.858;13.662;2024-03-23T21:31:27;7.70;;;4.53;;
31906;SDS011;18455;50.858;13.662;2024-03-23T21:36:27;7.40;;;4.30;;
31906;SDS011;18455;50.858;13.662;2024-03-23T21:41:28;9.77;;;5.73;;
31906;SDS011;18455;50.858;13.662;2024-03-23T21:46:29;8.53;;;5.17;;
31906;SDS011;18455;50.858;13.662;2024-03-23T21:51:29;8.37;;;4.67;;
31906;SDS011;18455;50.858;13.662;2024-03-23T21:56:29;9.03;;;6.00;;
31906;SDS011;18455;50.858;13.662;2024-03-23T22:01:30;8.63;;;5.03;;
31906;SDS011;18455;50.858;13.662;2024-03-23T22:06:30;8.90;;;4.40;;
31906;SDS011;18455;50.858;13.662;2024-03-23T22:11:30;9.63;;;4.73;;
31906;SDS011;18455;50.858;13.662;2024-03-23T22:16:30;6.03;;;4.00;;
31906;SDS011;18455;50.858;13.662;2024-03-23T22:21:31;5.83;;;3.53;;
31906;SDS011;18455;50.858;13.662;2024-03-23T22:26:31;5.87;;;3.33;;
31906;SDS011;18455;50.858;13.662;2024-03-23T22:31:32;6.30;;;3.63;;
31906;SDS011;18455;50.858;13.662;2024-03-23T22:36:32;10.50;;;3.90;;
31906;SDS011;18455;50.858;13.662;2024-03-23T22:41:32;6.23;;;3.30;;
31906;SDS011;18455;50.858;13.662;2024-03-23T22:46:32;6.53;;;3.67;;
31906;SDS011;18455;50.858;13.662;2024-03-23T22:51:32;4.20;;;3.77;;
31906;SDS011;18455;50.858;13.662;2024-03-23T22:56:33;9.57;;;4.60;;
31906;SDS011;18455;50.858;13.662;2024-03-23T23:01:33;6.80;;;4.00;;
31906;SDS011;18455;50.858;13.662;2024-03-23T23:06:33;7.00;;;4.20;;
31906;SDS011;18455;50.858;13.662;2024-03-23T23:11:35;7.10;;;4.20;;
31906;SDS011;18455;50.858;13.662;2024-03-23T23:16:35;8.60;;;3.70;;
31906;SDS011;18455;50.858;13.662;2024-03-23T23:21:35;9.20;;;5.47;;
31906;SDS011;18455;50.858;13.662;2024-03-23T23:26:36;10.73;;;4.30;;
31906;SDS011;18455;50.858;13.662;2024-03-23T23:31:37;7.47;;;4.33;;
31906;SDS011;18455;50.858;13.662;2024-03-23T23:36:37;8.73;;;3.90;;
31906;SDS011;18455;50.858;13.662;2024-03-23T23:41:37;4.77;;;3.53;;
31906;SDS011;18455;50.858;13.662;2024-03-23T23:46:37;2.80;;;2.23;;
31906;SDS011;18455;50.858;13.662;2024-03-23T23:51:39;2.03;;;1.87;;
31906;SDS011;18455;50.858;13.662;2024-03-23T23:56:39;5.30;;;2.23;;
